Time;durP1;ratioP1;P1;durP2;ratioP2;P2;SDS_P1;SDS_P2;PMS_P1;PMS_P2;Temp;Humidity;BMP_temperature;BMP_pressure;BME280_temperature;BME280_humidity;BME280_pressure;Samples;Min_cycle;Max_cycle;Signal;HPM_P1;HPM_P2
2022/08/29 04:17:21;;;;;;;4.50;3.90;;;14.70;99.90;;;;;;4357739;26;20455;-92
2022/08/29 04:19:48;;;;;;;5.43;4.40;;;14.70;99.90;;;;;;5031509;28;20450;-95
2022/08/29 04:22:15;;;;;;;4.40;4.00;;;14.70;99.90;;;;;;5037637;28;20537;-94
2022/08/29 04:24:42;;;;;;;4.40;3.77;;;14.70;99.90;;;;;;5037473;28;20518;-94
2022/08/29 04:27:08;;;;;;;6.50;4.43;;;14.70;99.90;;;;;;5036743;28;20500;-94
2022/08/29 04:29:37;;;;;;;4.83;4.40;;;14.70;99.90;;;;;;5036876;28;20472;-94
2022/08/29 04:32:04;;;;;;;4.30;3.90;;;14.70;99.90;;;;;;5037708;28;20485;-94
2022/08/29 04:34:33;;;;;;;4.13;3.73;;;14.60;99.90;;;;;;5037614;28;20521;-94
2022/08/29 04:36:59;;;;;;;6.90;4.50;;;14.60;99.90;;;;;;5037666;28;20620;-93
2022/08/29 04:39:26;;;;;;;5.33;4.60;;;14.60;99.90;;;;;;5037987;28;20465;-92
2022/08/29 04:41:53;;;;;;;5.70;4.70;;;14.60;99.90;;;;;;5037628;28;20503;-95
2022/08/29 04:44:20;;;;;;;4.60;3.93;;;14.60;99.90;;;;;;5038074;28;20447;-95
2022/08/29 04:46:47;;;;;;;4.37;3.97;;;14.60;99.90;;;;;;5037641;28;20466;-94
2022/08/29 04:49:14;;;;;;;5.13;4.60;;;14.60;99.90;;;;;;5037576;28;20468;-94
2022/08/29 04:51:42;;;;;;;5.30;4.13;;;14.50;99.90;;;;;;5038075;28;20501;-93
2022/08/29 04:54:09;;;;;;;5.63;3.90;;;14.60;99.90;;;;;;5037913;28;20473;-94
2022/08/29 04:56:36;;;;;;;4.57;4.17;;;14.60;99.90;;;;;;5038089;28;20437;-93
2022/08/29 04:59:04;;;;;;;6.00;4.47;;;14.60;99.90;;;;;;5037926;28;20464;-94
2022/08/29 05:01:31;;;;;;;4.60;4.17;;;14.60;99.90;;;;;;5037691;28;20549;-94
2022/08/29 05:03:58;;;;;;;4.90;4.50;;;14.50;99.90;;;;;;5037415;28;20455;-93
2022/08/29 05:11:35;;;;;;;5.13;4.63;;;14.50;99.90;;;;;;5030472;28;20518;-95
2022/08/29 05:14:02;;;;;;;5.13;4.50;;;14.50;99.90;;;;;;5017321;28;20451;-94
2022/08/29 05:16:29;;;;;;;5.67;4.27;;;14.60;99.90;;;;;;5017746;28;20459;-94
2022/08/29 05:18:58;;;;;;;5.43;4.83;;;14.60;99.90;;;;;;5017944;28;20474;-95
2022/08/29 05:21:26;;;;;;;5.37;4.30;;;14.60;99.90;;;;;;5017867;28;20463;-95
2022/08/29 05:23:55;;;;;;;4.57;4.00;;;14.60;99.90;;;;;;5017648;28;20514;-95
2022/08/29 05:26:22;;;;;;;5.10;4.50;;;14.70;99.90;;;;;;5017805;28;20531;-93
2022/08/29 05:28:50;;;;;;;5.17;4.67;;;14.70;99.90;;;;;;5017891;28;20466;-94
2022/08/29 05:31:17;;;;;;;6.73;5.13;;;14.70;99.90;;;;;;5017798;28;20449;-94
2022/08/29 05:33:44;;;;;;;5.13;4.60;;;14.80;99.90;;;;;;5017744;28;20447;-95
2022/08/29 05:36:11;;;;;;;5.03;4.63;;;14.80;99.90;;;;;;5017896;28;20443;-95
2022/08/29 05:38:38;;;;;;;5.40;4.90;;;15.00;99.90;;;;;;5017415;28;20439;-95
2022/08/29 05:41:06;;;;;;;5.23;4.70;;;15.00;99.90;;;;;;5017874;28;20449;-95
2022/08/29 05:43:33;;;;;;;4.87;4.20;;;15.10;99.90;;;;;;5017519;28;20530;-94
2022/08/29 05:46:03;;;;;;;5.00;4.50;;;15.10;99.90;;;;;;5017634;28;20448;-94
2022/08/29 05:48:31;;;;;;;5.30;4.67;;;15.10;99.90;;;;;;5017564;28;20470;-94
2022/08/29 05:50:58;;;;;;;5.10;4.60;;;15.30;99.90;;;;;;5017691;28;20442;-95
2022/08/29 05:53:25;;;;;;;4.97;4.47;;;15.40;99.90;;;;;;5017409;28;20443;-94
2022/08/29 05:55:52;;;;;;;6.70;4.40;;;15.50;99.90;;;;;;5016528;28;20450;-93
2022/08/29 05:58:21;;;;;;;5.63;4.90;;;15.60;99.90;;;;;;5003895;28;20547;-95
2022/08/29 06:00:49;;;;;;;8.03;4.30;;;15.60;99.90;;;;;;5146236;23;20486;-94
2022/08/29 06:03:17;;;;;;;4.70;4.17;;;15.70;99.90;;;;;;5023793;28;20443;-94
2022/08/29 06:05:50;;;;;;;5.40;4.63;;;15.70;99.90;;;;;;5037360;28;20509;-93
2022/08/29 06:08:17;;;;;;;4.90;4.10;;;15.80;99.90;;;;;;5037256;28;20542;-95
2022/08/29 06:10:44;;;;;;;7.33;5.53;;;15.90;99.90;;;;;;5037173;28;20446;-95
2022/08/29 06:54:41;;;;;;;6.30;5.60;;;17.30;99.90;;;;;;1487465;26;20461;-94
2022/08/29 06:57:08;;;;;;;6.53;5.87;;;17.40;99.90;;;;;;5019050;28;20499;-94
2022/08/29 07:02:11;;;;;;;8.47;6.67;;;17.60;99.90;;;;;;3053770;23;20476;-94
2022/08/29 07:37:57;;;;;;;6.87;5.83;;;18.80;99.90;;;;;;573857;23;20755;-95
2022/08/29 08:06:20;;;;;;;6.13;5.63;;;20.20;99.90;;;;;;1224212;23;20717;-92
2022/08/29 08:08:48;;;;;;;6.60;5.70;;;20.30;99.90;;;;;;5039824;28;20466;-91
2022/08/29 08:11:24;;;;;;;5.80;5.30;;;20.40;99.90;;;;;;5093904;23;20481;-94
2022/08/29 08:14:00;;;;;;;9.13;6.10;;;20.50;99.90;;;;;;5019605;28;20455;-92
2022/08/29 08:22:24;;;;;;;6.47;5.07;;;20.90;99.90;;;;;;5119282;23;20497;-95
2022/08/29 08:24:51;;;;;;;6.23;5.57;;;21.10;99.90;;;;;;5028872;23;20536;-95
2022/08/29 08:27:19;;;;;;;5.93;5.37;;;21.10;99.90;;;;;;5007379;28;20448;-94
2022/08/29 08:29:46;;;;;;;6.33;5.70;;;21.30;99.90;;;;;;4999769;28;20828;-93
2022/08/29 08:32:13;;;;;;;7.13;5.50;;;21.50;99.90;;;;;;4998128;28;20424;-93
2022/08/29 08:34:40;;;;;;;7.10;5.23;;;21.60;99.90;;;;;;4999698;28;20444;-95
2022/08/29 08:37:07;;;;;;;6.97;5.47;;;21.70;99.90;;;;;;4999656;28;20485;-95
2022/08/29 08:39:37;;;;;;;5.40;4.60;;;21.80;99.90;;;;;;4999225;28;20452;-92
2022/08/29 08:45:33;;;;;;;5.20;4.70;;;22.10;99.90;;;;;;4984999;28;20418;-93
2022/08/29 08:48:06;;;;;;;5.40;4.70;;;22.30;99.90;;;;;;4982822;28;20512;-92
2022/08/29 08:50:41;;;;;;;5.20;4.70;;;22.40;99.90;;;;;;4982937;28;20867;-92
2022/08/29 08:53:15;;;;;;;4.60;4.20;;;22.50;99.90;;;;;;4991656;28;20542;-92
2022/08/29 08:56:00;;;;;;;;;;;;;;;;;;;;;
2022/08/29 08:58:32;;;;;;;4.87;4.37;;;22.60;99.90;;;;;;4961918;28;20450;-93
2022/08/29 09:08:51;;;;;;;5.10;4.50;;;23.20;99.90;;;;;;4992698;28;20511;-94
2022/08/29 09:11:29;;;;;;;5.63;4.17;;;23.40;99.90;;;;;;5013639;28;20557;-94
2022/08/29 09:14:03;;;;;;;4.17;3.87;;;23.50;99.90;;;;;;4982445;28;20548;-94
2022/08/29 09:16:38;;;;;;;4.07;3.70;;;23.70;99.90;;;;;;4988335;28;20483;-94
2022/08/29 09:19:08;;;;;;;5.40;4.53;;;23.80;99.90;;;;;;4981376;28;20464;-94
2022/08/29 09:21:44;;;;;;;5.37;4.40;;;23.90;99.90;;;;;;4985582;28;20477;-94
2022/08/29 09:24:15;;;;;;;4.67;4.07;;;23.90;99.90;;;;;;4999540;28;20450;-93
2022/08/29 09:30:13;;;;;;;5.87;4.60;;;24.20;99.90;;;;;;4953911;28;20476;-94
2022/08/29 09:32:53;;;;;;;4.87;4.40;;;24.30;99.90;;;;;;4992357;28;20565;-94
2022/08/29 09:35:23;;;;;;;4.93;4.10;;;24.50;99.90;;;;;;4999255;28;20472;-94
2022/08/29 09:37:56;;;;;;;4.20;3.67;;;24.60;99.90;;;;;;5001262;28;20535;-95
2022/08/29 09:40:23;;;;;;;5.70;4.13;;;24.60;99.90;;;;;;5001994;28;20467;-95
2022/08/29 09:43:02;;;;;;;6.10;3.73;;;24.70;99.90;;;;;;5000331;28;20463;-94
2022/08/29 09:45:29;;;;;;;3.80;3.50;;;24.80;99.90;;;;;;5008553;28;20464;-95
2022/08/29 09:48:09;;;;;;;3.73;3.43;;;24.80;99.90;;;;;;5007413;28;20543;-94
2022/08/29 09:50:37;;;;;;;4.30;3.50;;;24.80;99.90;;;;;;5001881;28;20485;-94
2022/08/29 09:53:05;;;;;;;4.60;3.83;;;24.90;99.90;;;;;;5009239;28;20496;-94
2022/08/29 09:55:35;;;;;;;5.00;3.70;;;25.10;99.90;;;;;;5017756;28;20471;-94
2022/08/29 09:58:06;;;;;;;4.63;3.80;;;25.20;99.90;;;;;;5016903;28;20500;-94
2022/08/29 10:00:35;;;;;;;4.53;3.87;;;25.30;99.90;;;;;;5018945;28;20575;-93
2022/08/29 10:03:05;;;;;;;4.43;3.57;;;25.40;99.90;;;;;;5001278;28;20469;-93
2022/08/29 10:05:41;;;;;;;4.03;3.70;;;25.40;99.90;;;;;;4998067;28;20535;-94
2022/08/29 10:08:39;;;;;;;4.20;3.80;;;25.50;99.90;;;;;;4996865;28;20492;-94
2022/08/29 10:11:18;;;;;;;3.23;2.90;;;25.60;99.90;;;;;;4995165;28;20823;-93
2022/08/29 10:13:52;;;;;;;3.50;3.20;;;25.70;99.90;;;;;;4995378;28;20472;-95
2022/08/29 10:16:29;;;;;;;3.77;3.43;;;25.70;99.90;;;;;;4995778;28;20478;-93
2022/08/29 10:19:02;;;;;;;3.70;3.40;;;25.70;99.90;;;;;;5006085;28;20461;-94
2022/08/29 10:53:09;;;;;;;4.90;3.70;;;25.60;99.90;;;;;;5013607;28;20464;-94
2022/08/29 10:55:59;;;;;;;3.60;3.30;;;25.50;99.90;;;;;;5013899;28;20493;-95
2022/08/29 11:01:30;;;;;;;3.50;3.20;;;25.90;99.90;;;;;;5049761;23;20453;-93
2022/08/29 11:04:44;;;;;;;3.90;3.27;;;26.20;99.90;;;;;;5033381;28;20472;-93
2022/08/29 11:07:16;;;;;;;3.77;3.47;;;26.40;99.90;;;;;;5083086;23;21801;-93
2022/08/29 11:10:03;;;;;;;3.67;3.37;;;26.40;99.90;;;;;;4954426;28;20494;-94
2022/08/29 11:12:39;;;;;;;5.10;4.20;;;26.40;99.90;;;;;;4978856;28;20518;-92
2022/08/29 11:15:17;;;;;;;3.67;3.20;;;26.20;99.90;;;;;;4970708;28;21100;-92
2022/08/29 11:17:52;;;;;;;3.90;3.43;;;26.00;99.90;;;;;;4963611;28;20498;-93
2022/08/29 11:20:23;;;;;;;4.70;4.00;;;25.90;99.90;;;;;;4950862;29;20472;-92
2022/08/29 11:22:54;;;;;;;4.20;3.80;;;26.00;99.90;;;;;;4958149;29;20471;-93
2022/08/29 11:25:42;;;;;;;5.20;3.93;;;26.00;99.90;;;;;;4958968;29;20562;-92
2022/08/29 11:28:22;;;;;;;5.60;3.57;;;26.00;99.90;;;;;;4955468;28;20789;-93
2022/08/29 11:30:54;;;;;;;3.63;3.33;;;26.10;99.90;;;;;;4957374;29;20472;-93
2022/08/29 11:33:31;;;;;;;4.40;4.00;;;26.10;99.90;;;;;;4957843;29;20500;-93
2022/08/29 11:36:16;;;;;;;5.13;3.70;;;26.30;99.90;;;;;;4968101;29;20919;-94
2022/08/29 11:39:18;;;;;;;3.87;3.57;;;26.50;99.90;;;;;;4967876;29;20470;-94
2022/08/29 11:41:54;;;;;;;4.43;3.93;;;26.70;99.90;;;;;;4940198;29;20471;-95
2022/08/29 11:44:26;;;;;;;3.77;3.47;;;27.00;99.90;;;;;;4964387;29;20508;-93
2022/08/29 11:46:54;;;;;;;3.73;3.43;;;27.10;99.90;;;;;;4960273;28;20484;-93
2022/08/29 11:49:54;;;;;;;4.40;4.00;;;27.00;99.90;;;;;;4957578;29;21023;-92
2022/08/29 11:52:52;;;;;;;4.30;3.47;;;26.90;99.90;;;;;;4974766;29;20528;-94
2022/08/29 11:55:44;;;;;;;4.47;4.07;;;26.90;99.90;;;;;;4980624;28;20468;-95
2022/08/29 11:58:48;;;;;;;3.40;3.10;;;27.20;99.90;;;;;;4980038;28;20472;-95
2022/08/29 12:01:53;;;;;;;4.53;3.60;;;27.20;99.90;;;;;;4961286;29;20524;-94
2022/08/29 12:07:40;;;;;;;3.90;3.50;;;27.40;99.90;;;;;;5025577;23;20531;-95
2022/08/29 12:10:12;;;;;;;6.07;3.40;;;27.50;99.90;;;;;;5007996;28;20452;-96
2022/08/29 12:12:47;;;;;;;4.60;3.30;;;27.60;99.90;;;;;;5018671;28;20443;-96
2022/08/29 12:15:50;;;;;;;5.37;3.37;;;27.60;99.90;;;;;;5018972;28;20443;-95
2022/08/29 12:18:45;;;;;;;4.03;3.63;;;27.50;99.90;;;;;;5008268;28;20475;-95
2022/08/29 12:24:43;;;;;;;4.47;3.90;;;27.20;99.90;;;;;;4999697;28;20419;-95
2022/08/29 12:27:24;;;;;;;3.67;3.37;;;27.20;99.90;;;;;;4999460;28;20467;-96
2022/08/29 12:29:53;;;;;;;4.33;3.93;;;27.40;99.90;;;;;;4999167;28;20463;-94
2022/08/29 12:32:34;;;;;;;3.80;3.50;;;27.60;99.90;;;;;;4999467;28;20511;-95
2022/08/29 12:35:27;;;;;;;3.90;3.50;;;27.80;99.90;;;;;;4998880;28;20514;-96
2022/08/29 12:38:12;;;;;;;3.80;3.20;;;28.00;99.80;;;;;;4999352;28;20487;-95
2022/08/29 12:40:56;;;;;;;4.27;3.87;;;28.10;99.90;;;;;;4998838;28;20515;-96
2022/08/29 12:43:34;;;;;;;3.23;2.97;;;28.20;99.90;;;;;;4998801;28;20475;-96
2022/08/29 12:46:03;;;;;;;4.20;3.83;;;28.20;99.90;;;;;;4993904;28;20514;-95
2022/08/29 12:48:36;;;;;;;3.47;3.17;;;28.40;99.90;;;;;;4997765;28;20456;-96
2022/08/29 12:51:05;;;;;;;3.90;3.43;;;28.40;99.90;;;;;;4999325;28;20506;-95
2022/08/29 12:53:35;;;;;;;4.37;3.70;;;28.30;99.90;;;;;;4998202;28;20515;-93
2022/08/29 12:56:12;;;;;;;3.80;3.23;;;28.10;99.90;;;;;;4999074;28;20435;-95
2022/08/29 12:58:41;;;;;;;4.17;3.20;;;28.00;99.90;;;;;;4997948;28;20467;-95
2022/08/29 13:01:21;;;;;;;3.50;3.20;;;27.90;99.90;;;;;;4998626;28;20531;-93
2022/08/29 13:06:36;;;;;;;3.83;3.53;;;28.00;99.20;;;;;;5186707;23;20474;-94
2022/08/29 13:09:05;;;;;;;4.20;3.63;;;27.80;99.10;;;;;;5017929;28;20471;-96
2022/08/29 13:11:33;;;;;;;3.27;3.00;;;27.70;99.90;;;;;;5018375;28;20451;-94
2022/08/29 13:14:10;;;;;;;3.40;3.10;;;27.90;99.90;;;;;;5001156;28;20439;-94
2022/08/29 13:16:49;;;;;;;4.07;3.50;;;28.00;99.90;;;;;;5017911;28;20447;-94
2022/08/29 13:19:20;;;;;;;3.70;3.40;;;28.00;99.00;;;;;;5005997;28;20485;-95
2022/08/29 13:24:24;;;;;;;3.57;3.27;;;27.90;99.70;;;;;;5163546;23;20498;-93
2022/08/29 13:26:55;;;;;;;3.60;3.30;;;27.70;99.10;;;;;;5020716;28;20435;-94
2022/08/29 13:29:32;;;;;;;4.30;3.90;;;27.50;99.60;;;;;;5026532;28;20485;-94
2022/08/29 13:32:22;;;;;;;3.23;2.80;;;27.30;99.90;;;;;;5036520;28;20445;-94
2022/08/29 13:35:17;;;;;;;3.57;3.27;;;27.10;99.90;;;;;;5036398;28;20465;-94
2022/08/29 13:37:46;;;;;;;4.10;3.70;;;26.90;99.90;;;;;;5037088;28;20462;-94
2022/08/29 13:40:46;;;;;;;3.73;3.43;;;26.70;99.90;;;;;;5034549;28;20533;-94
2022/08/29 13:49:18;;;;;;;3.90;3.50;;;26.20;99.90;;;;;;5085412;23;20490;-95
2022/08/29 16:28:13;;;;;;;3.43;3.13;;;26.60;98.60;;;;;;5025641;28;20817;-94
2022/08/29 16:31:07;;;;;;;3.57;3.27;;;26.60;98.20;;;;;;5030537;28;20565;-94
2022/08/29 16:33:35;;;;;;;3.63;3.10;;;26.60;99.00;;;;;;5210622;23;20492;-93
2022/08/29 16:36:02;;;;;;;3.83;3.20;;;26.60;98.60;;;;;;5027419;28;20431;-94
2022/08/29 16:38:31;;;;;;;3.23;3.03;;;26.60;98.30;;;;;;5086573;23;20557;-94
2022/08/29 16:41:07;;;;;;;3.43;3.13;;;26.60;98.30;;;;;;5010127;28;20451;-94
2022/08/29 16:43:37;;;;;;;4.20;3.80;;;26.60;98.60;;;;;;5015603;28;20431;-94
2022/08/29 16:46:04;;;;;;;3.43;3.13;;;26.60;98.20;;;;;;4999026;28;20463;-92
2022/08/29 16:48:32;;;;;;;3.80;3.43;;;26.60;98.80;;;;;;5001598;28;20479;-94
2022/08/29 16:51:24;;;;;;;4.00;3.60;;;26.60;98.30;;;;;;5009195;28;20549;-94
2022/08/29 16:53:52;;;;;;;3.77;3.47;;;26.50;97.70;;;;;;5012949;28;20436;-94
2022/08/29 16:56:25;;;;;;;3.57;3.27;;;26.50;98.60;;;;;;4995074;28;20535;-95
2022/08/29 17:06:57;;;;;;;3.83;3.43;;;26.20;99.20;;;;;;5345459;23;20499;-93
2022/08/29 18:52:43;;;;;;;5.37;4.87;;;21.60;99.90;;;;;;789310;23;22061;31
2022/08/29 19:06:35;;;;;;;6.97;5.68;;;21.50;99.90;;;;;;5705091;22;15106315;-94
2022/08/29 19:09:58;;;;;;;;;;;;;;;;;;;;;
2022/08/29 19:12:22;;;;;;;5.10;4.50;;;21.00;99.90;;;;;;6361406;22;20481;-95
2022/08/29 20:18:11;;;;;;;4.43;4.00;;;19.50;99.90;;;;;;6370434;22;20432;-95
2022/08/29 20:29:05;;;;;;;4.10;3.70;;;19.30;99.90;;;;;;6386661;22;20437;-93
2022/08/29 20:32:06;;;;;;;3.80;3.50;;;19.30;99.90;;;;;;6399589;22;20424;-93
2022/08/29 20:34:43;;;;;;;3.67;3.30;;;19.20;99.90;;;;;;6397425;22;20446;-96
2022/08/29 21:31:30;;;;;;;4.67;3.80;;;18.70;99.90;;;;;;6322268;22;20407;-93
2022/08/29 21:33:58;;;;;;;3.90;3.60;;;18.60;99.90;;;;;;6335428;22;20399;-93
2022/08/29 21:36:27;;;;;;;4.13;3.73;;;18.60;99.90;;;;;;6328704;22;20448;-93
2022/08/29 21:38:56;;;;;;;4.63;3.80;;;18.60;99.90;;;;;;6317551;22;20438;-92
2022/08/29 21:41:24;;;;;;;3.87;3.40;;;18.60;99.90;;;;;;6275961;22;20734;-93
2022/08/29 21:43:51;;;;;;;5.50;3.43;;;18.50;99.90;;;;;;6285899;22;20415;-92
2022/08/29 21:46:20;;;;;;;3.77;3.37;;;18.50;99.90;;;;;;6276513;22;20422;-93
2022/08/29 21:48:51;;;;;;;3.67;3.30;;;18.50;99.90;;;;;;6276322;22;20422;-92
2022/08/29 21:51:20;;;;;;;4.23;3.57;;;18.50;99.90;;;;;;6276313;22;20443;-93
2022/08/29 21:53:47;;;;;;;3.70;3.40;;;18.40;99.90;;;;;;6276077;22;20426;-92
2022/08/29 21:56:15;;;;;;;4.60;3.63;;;18.40;99.90;;;;;;6275910;22;20451;-93
2022/08/29 21:58:41;;;;;;;4.03;3.73;;;18.40;99.90;;;;;;6276624;22;20784;-93
2022/08/29 22:01:09;;;;;;;3.40;3.10;;;18.40;99.90;;;;;;6276103;22;20938;-92
2022/08/29 22:03:35;;;;;;;5.23;4.20;;;18.30;99.90;;;;;;6275968;22;20505;-92
2022/08/29 22:06:04;;;;;;;4.67;4.07;;;18.30;99.90;;;;;;6286486;22;20468;-92
2022/08/29 22:08:31;;;;;;;4.63;3.47;;;18.20;99.90;;;;;;6275187;22;20419;-92
2022/08/29 22:10:59;;;;;;;6.13;3.67;;;18.20;99.90;;;;;;6275590;22;20950;-92
2022/08/29 22:13:26;;;;;;;5.33;4.20;;;18.10;99.90;;;;;;6275704;22;20461;-92
2022/08/29 22:18:37;;;;;;;4.07;3.70;;;18.10;99.90;;;;;;6286812;22;20472;-93
2022/08/29 22:21:05;;;;;;;3.60;3.30;;;18.10;99.90;;;;;;6291411;22;20443;-93
2022/08/29 22:23:32;;;;;;;3.60;3.30;;;18.10;99.90;;;;;;6301487;22;20407;-93
2022/08/29 22:25:59;;;;;;;4.93;4.43;;;18.00;99.90;;;;;;6300290;22;20403;-93
2022/08/29 22:28:26;;;;;;;4.73;3.60;;;18.00;99.90;;;;;;6302285;22;20403;-94
2022/08/29 22:30:53;;;;;;;4.37;3.97;;;18.00;99.90;;;;;;6282723;22;21015;-93
2022/08/29 22:33:19;;;;;;;5.37;4.30;;;17.90;99.90;;;;;;6287576;22;20450;-92
2022/08/29 22:35:46;;;;;;;4.57;4.10;;;17.90;99.90;;;;;;6285962;22;20438;-93
2022/08/29 22:38:14;;;;;;;4.40;4.00;;;17.90;99.90;;;;;;6276757;22;20425;-93
2022/08/29 22:40:43;;;;;;;4.77;4.23;;;17.90;99.90;;;;;;6285809;22;20431;-94
2022/08/29 22:43:09;;;;;;;5.00;3.80;;;17.80;99.90;;;;;;6287798;22;20426;-93
2022/08/29 22:45:36;;;;;;;5.10;3.13;;;17.80;99.90;;;;;;6275843;22;20419;-94
2022/08/29 22:48:03;;;;;;;4.57;3.90;;;17.80;99.90;;;;;;6275963;22;20423;-93
2022/08/29 22:50:30;;;;;;;5.10;3.90;;;17.80;99.90;;;;;;6275972;22;20447;-93
2022/08/29 22:52:58;;;;;;;7.30;3.93;;;17.70;99.90;;;;;;6275876;22;20442;-91
2022/08/29 22:55:26;;;;;;;5.50;4.30;;;17.70;99.90;;;;;;6275326;22;20449;-93
2022/08/29 22:57:53;;;;;;;5.53;3.63;;;17.70;99.90;;;;;;6275935;22;20423;-92
2022/08/29 23:00:22;;;;;;;4.93;4.40;;;17.70;99.90;;;;;;6275934;22;20435;-92
2022/08/29 23:02:50;;;;;;;4.40;3.63;;;17.70;99.90;;;;;;6275869;22;20419;-92
2022/08/29 23:05:19;;;;;;;4.27;3.87;;;17.60;99.90;;;;;;6275425;22;20420;-93
2022/08/29 23:07:46;;;;;;;4.50;3.67;;;17.60;99.90;;;;;;6287353;22;20437;-93
2022/08/29 23:10:14;;;;;;;3.83;3.37;;;17.60;99.90;;;;;;6303232;22;20433;-91
2022/08/29 23:12:42;;;;;;;3.90;3.60;;;17.60;99.90;;;;;;6313428;22;20441;-94
2022/08/29 23:15:13;;;;;;;4.67;4.03;;;17.50;99.90;;;;;;6298974;22;20447;-92
2022/08/29 23:17:41;;;;;;;4.17;3.73;;;17.50;99.90;;;;;;6281801;22;20418;-92
2022/08/29 23:20:10;;;;;;;5.23;4.00;;;17.50;99.90;;;;;;6281844;22;20443;-92
2022/08/29 23:22:38;;;;;;;4.30;3.90;;;17.50;99.90;;;;;;6293966;22;20434;-92
2022/08/29 23:25:06;;;;;;;4.30;3.70;;;17.50;99.90;;;;;;6296470;22;20415;-92
2022/08/29 23:27:34;;;;;;;5.00;4.50;;;17.50;99.90;;;;;;6280889;22;20423;-93
2022/08/29 23:30:05;;;;;;;5.87;4.27;;;17.40;99.90;;;;;;6279817;22;20992;-93
2022/08/29 23:32:31;;;;;;;4.83;4.10;;;17.40;99.90;;;;;;6289302;22;20411;-92
2022/08/29 23:34:58;;;;;;;4.27;3.87;;;17.40;99.90;;;;;;6289180;22;20440;-93
2022/08/29 23:37:25;;;;;;;4.93;4.03;;;17.30;99.90;;;;;;6289192;22;20423;-93
2022/08/29 23:39:52;;;;;;;4.63;4.00;;;17.30;99.90;;;;;;6289280;22;20443;-92
2022/08/29 23:42:19;;;;;;;4.43;3.80;;;17.30;99.90;;;;;;6290600;22;20426;-93
2022/08/29 23:44:46;;;;;;;4.60;3.80;;;17.30;99.90;;;;;;6280570;22;20422;-92
2022/08/29 23:47:14;;;;;;;5.30;4.40;;;17.20;99.90;;;;;;6290968;22;20909;-91
2022/08/29 23:49:40;;;;;;;4.00;3.53;;;17.20;99.90;;;;;;6290660;22;20469;-93
2022/08/29 23:52:07;;;;;;;4.63;4.13;;;17.20;99.90;;;;;;6290741;22;20426;-92
2022/08/29 23:54:35;;;;;;;5.00;3.90;;;17.20;99.90;;;;;;6280117;22;20423;-93
2022/08/29 23:57:02;;;;;;;4.30;3.80;;;17.20;99.90;;;;;;6290890;22;20472;-92
